sensor_id;sensor_type;location;lat;lon;timestamp;temperature;humidity
63313;DHT22;49442;45.640;13.812;2022-07-29T00:00:42;25.00;92.50
63313;DHT22;49442;45.640;13.812;2022-07-29T00:03:10;25.00;92.60
63313;DHT22;49442;45.640;13.812;2022-07-29T00:05:38;25.00;92.50
63313;DHT22;49442;45.640;13.812;2022-07-29T00:08:04;25.00;92.40
63313;DHT22;49442;45.640;13.812;2022-07-29T00:10:30;25.00;92.30
63313;DHT22;49442;45.640;13.812;2022-07-29T00:12:56;25.00;92.30
63313;DHT22;49442;45.640;13.812;2022-07-29T00:15:21;25.00;92.20
63313;DHT22;49442;45.640;13.812;2022-07-29T00:17:50;25.00;92.30
63313;DHT22;49442;45.640;13.812;2022-07-29T00:20:16;25.00;92.20
63313;DHT22;49442;45.640;13.812;2022-07-29T00:22:42;25.00;92.30
63313;DHT22;49442;45.640;13.812;2022-07-29T00:25:08;24.90;92.30
63313;DHT22;49442;45.640;13.812;2022-07-29T00:27:36;25.00;92.30
63313;DHT22;49442;45.640;13.812;2022-07-29T00:30:03;25.00;92.30
63313;DHT22;49442;45.640;13.812;2022-07-29T00:32:29;24.90;92.30
63313;DHT22;49442;45.640;13.812;2022-07-29T00:34:55;24.90;92.20
63313;DHT22;49442;45.640;13.812;2022-07-29T00:37:39;25.00;92.30
63313;DHT22;49442;45.640;13.812;2022-07-29T00:40:06;25.00;92.20
63313;DHT22;49442;45.640;13.812;2022-07-29T00:42:42;24.90;92.20
63313;DHT22;49442;45.640;13.812;2022-07-29T00:45:08;24.90;92.20
63313;DHT22;49442;45.640;13.812;2022-07-29T00:47:34;24.90;92.10
63313;DHT22;49442;45.640;13.812;2022-07-29T00:49:59;24.90;92.10
63313;DHT22;49442;45.640;13.812;2022-07-29T00:52:25;24.90;92.10
63313;DHT22;49442;45.640;13.812;2022-07-29T00:54:50;24.90;92.20
63313;DHT22;49442;45.640;13.812;2022-07-29T00:57:16;24.90;92.20
63313;DHT22;49442;45.640;13.812;2022-07-29T00:59:42;24.90;92.10
63313;DHT22;49442;45.640;13.812;2022-07-29T01:02:08;24.90;92.00
63313;DHT22;49442;45.640;13.812;2022-07-29T01:04:34;24.80;92.10
63313;DHT22;49442;45.640;13.812;2022-07-29T01:07:02;24.80;91.90
63313;DHT22;49442;45.640;13.812;2022-07-29T01:09:28;24.80;91.90
63313;DHT22;49442;45.640;13.812;2022-07-29T01:11:54;24.80;91.90
63313;DHT22;49442;45.640;13.812;2022-07-29T01:14:21;24.80;92.10
63313;DHT22;49442;45.640;13.812;2022-07-29T01:17:02;24.80;91.80
63313;DHT22;49442;45.640;13.812;2022-07-29T01:25:20;24.70;91.80
63313;DHT22;49442;45.640;13.812;2022-07-29T01:30:25;24.80;91.70
63313;DHT22;49442;45.640;13.812;2022-07-29T01:32:58;24.70;91.60
63313;DHT22;49442;45.640;13.812;2022-07-29T01:35:28;24.70;91.60
63313;DHT22;49442;45.640;13.812;2022-07-29T01:38:17;24.70;91.60
63313;DHT22;49442;45.640;13.812;2022-07-29T01:40:51;24.70;91.40
63313;DHT22;49442;45.640;13.812;2022-07-29T01:43:29;24.70;91.40
63313;DHT22;49442;45.640;13.812;2022-07-29T01:46:00;24.70;91.30
63313;DHT22;49442;45.640;13.812;2022-07-29T01:48:45;24.70;91.40
63313;DHT22;49442;45.640;13.812;2022-07-29T01:51:25;24.70;91.50
63313;DHT22;49442;45.640;13.812;2022-07-29T01:56:38;24.70;91.40
63313;DHT22;49442;45.640;13.812;2022-07-29T01:59:06;24.70;91.30
63313;DHT22;49442;45.640;13.812;2022-07-29T02:01:33;24.70;91.20
63313;DHT22;49442;45.640;13.812;2022-07-29T02:04:03;24.70;91.20
63313;DHT22;49442;45.640;13.812;2022-07-29T02:06:31;24.70;91.20
63313;DHT22;49442;45.640;13.812;2022-07-29T02:08:58;24.70;91.10
63313;DHT22;49442;45.640;13.812;2022-07-29T02:11:25;24.70;91.10
63313;DHT22;49442;45.640;13.812;2022-07-29T02:13:53;24.70;91.10
63313;DHT22;49442;45.640;13.812;2022-07-29T02:16:21;24.70;91.20
63313;DHT22;49442;45.640;13.812;2022-07-29T02:18:51;24.60;91.20
63313;DHT22;49442;45.640;13.812;2022-07-29T02:21:23;24.60;91.10
63313;DHT22;49442;45.640;13.812;2022-07-29T02:23:51;24.60;91.10
63313;DHT22;49442;45.640;13.812;2022-07-29T02:26:20;24.60;91.10
63313;DHT22;49442;45.640;13.812;2022-07-29T02:28:49;24.60;91.00
63313;DHT22;49442;45.640;13.812;2022-07-29T02:31:17;24.60;91.00
63313;DHT22;49442;45.640;13.812;2022-07-29T02:33:45;24.60;90.90
63313;DHT22;49442;45.640;13.812;2022-07-29T02:36:11;24.60;91.10
63313;DHT22;49442;45.640;13.812;2022-07-29T02:38:37;24.60;90.90
63313;DHT22;49442;45.640;13.812;2022-07-29T02:43:47;24.60;91.00
63313;DHT22;49442;45.640;13.812;2022-07-29T02:46:29;24.60;90.80
63313;DHT22;49442;45.640;13.812;2022-07-29T02:49:09;24.60;90.90
63313;DHT22;49442;45.640;13.812;2022-07-29T02:52:03;24.60;90.80
63313;DHT22;49442;45.640;13.812;2022-07-29T02:54:44;24.50;90.80
63313;DHT22;49442;45.640;13.812;2022-07-29T02:57:19;24.50;90.80
63313;DHT22;49442;45.640;13.812;2022-07-29T02:59:51;24.50;90.80
63313;DHT22;49442;45.640;13.812;2022-07-29T03:02:18;24.50;90.90
63313;DHT22;49442;45.640;13.812;2022-07-29T03:04:45;24.40;90.90
63313;DHT22;49442;45.640;13.812;2022-07-29T03:07:14;24.40;90.80
63313;DHT22;49442;45.640;13.812;2022-07-29T03:09:41;24.40;90.70
63313;DHT22;49442;45.640;13.812;2022-07-29T03:12:08;24.40;90.80
63313;DHT22;49442;45.640;13.812;2022-07-29T03:14:35;24.30;90.80
63313;DHT22;49442;45.640;13.812;2022-07-29T03:17:01;24.40;90.80
63313;DHT22;49442;45.640;13.812;2022-07-29T03:19:28;24.30;90.80
63313;DHT22;49442;45.640;13.812;2022-07-29T03:21:57;24.30;90.80
63313;DHT22;49442;45.640;13.812;2022-07-29T03:24:30;24.30;90.80
63313;DHT22;49442;45.640;13.812;2022-07-29T03:26:56;24.30;90.80
63313;DHT22;49442;45.640;13.812;2022-07-29T03:29:22;24.30;90.70
63313;DHT22;49442;45.640;13.812;2022-07-29T03:31:48;24.30;90.70
63313;DHT22;49442;45.640;13.812;2022-07-29T03:34:13;24.40;90.70
63313;DHT22;49442;45.640;13.812;2022-07-29T03:36:39;24.30;90.70
63313;DHT22;49442;45.640;13.812;2022-07-29T03:39:05;24.40;90.70
63313;DHT22;49442;45.640;13.812;2022-07-29T03:41:33;24.30;90.60
63313;DHT22;49442;45.640;13.812;2022-07-29T03:44:01;24.30;90.60
63313;DHT22;49442;45.640;13.812;2022-07-29T03:46:28;24.30;90.70
63313;DHT22;49442;45.640;13.812;2022-07-29T03:49:01;24.30;90.60
63313;DHT22;49442;45.640;13.812;2022-07-29T03:51:28;24.30;90.50
63313;DHT22;49442;45.640;13.812;2022-07-29T03:53:54;24.30;90.50
63313;DHT22;49442;45.640;13.812;2022-07-29T03:56:23;24.30;90.50
63313;DHT22;49442;45.640;13.812;2022-07-29T03:58:51;24.30;90.50
63313;DHT22;49442;45.640;13.812;2022-07-29T04:01:18;24.30;90.30
63313;DHT22;49442;45.640;13.812;2022-07-29T04:03:45;24.30;90.30
63313;DHT22;49442;45.640;13.812;2022-07-29T04:06:11;24.30;90.30
63313;DHT22;49442;45.640;13.812;2022-07-29T04:08:37;24.30;90.20
63313;DHT22;49442;45.640;13.812;2022-07-29T04:11:05;24.30;90.20
63313;DHT22;49442;45.640;13.812;2022-07-29T04:13:31;24.40;90.00
63313;DHT22;49442;45.640;13.812;2022-07-29T04:15:57;24.40;90.00
63313;DHT22;49442;45.640;13.812;2022-07-29T04:18:23;24.40;90.10
63313;DHT22;49442;45.640;13.812;2022-07-29T04:20:49;24.40;90.10
63313;DHT22;49442;45.640;13.812;2022-07-29T04:23:15;24.40;90.10
63313;DHT22;49442;45.640;13.812;2022-07-29T04:25:41;24.50;90.00
63313;DHT22;49442;45.640;13.812;2022-07-29T04:28:08;24.50;90.20
63313;DHT22;49442;45.640;13.812;2022-07-29T04:30:36;24.50;90.10
63313;DHT22;49442;45.640;13.812;2022-07-29T04:33:04;24.60;90.30
63313;DHT22;49442;45.640;13.812;2022-07-29T04:35:33;24.50;91.00
63313;DHT22;49442;45.640;13.812;2022-07-29T04:37:59;24.60;90.60
63313;DHT22;49442;45.640;13.812;2022-07-29T04:40:24;24.60;91.10
63313;DHT22;49442;45.640;13.812;2022-07-29T04:42:50;24.60;90.80
63313;DHT22;49442;45.640;13.812;2022-07-29T04:45:16;24.60;91.10
63313;DHT22;49442;45.640;13.812;2022-07-29T04:47:41;24.60;91.10
63313;DHT22;49442;45.640;13.812;2022-07-29T04:50:08;24.60;91.60
63313;DHT22;49442;45.640;13.812;2022-07-29T04:52:34;24.60;91.20
63313;DHT22;49442;45.640;13.812;2022-07-29T04:55:01;24.50;91.30
63313;DHT22;49442;45.640;13.812;2022-07-29T04:57:27;24.50;91.70
63313;DHT22;49442;45.640;13.812;2022-07-29T04:59:52;24.50;91.50
63313;DHT22;49442;45.640;13.812;2022-07-29T05:02:18;24.60;90.90
63313;DHT22;49442;45.640;13.812;2022-07-29T05:04:44;24.60;90.60
63313;DHT22;49442;45.640;13.812;2022-07-29T05:07:09;24.60;90.60
63313;DHT22;49442;45.640;13.812;2022-07-29T05:09:35;24.60;90.40
63313;DHT22;49442;45.640;13.812;2022-07-29T05:12:01;24.70;89.80
63313;DHT22;49442;45.640;13.812;2022-07-29T05:14:27;24.80;89.70
63313;DHT22;49442;45.640;13.812;2022-07-29T05:16:53;24.80;89.50
63313;DHT22;49442;45.640;13.812;2022-07-29T05:19:22;24.80;89.60
63313;DHT22;49442;45.640;13.812;2022-07-29T05:21:48;24.80;89.80
63313;DHT22;49442;45.640;13.812;2022-07-29T05:24:16;24.80;90.00
63313;DHT22;49442;45.640;13.812;2022-07-29T05:26:42;24.90;90.00
63313;DHT22;49442;45.640;13.812;2022-07-29T05:29:08;24.90;89.60
63313;DHT22;49442;45.640;13.812;2022-07-29T05:31:34;25.00;89.60
63313;DHT22;49442;45.640;13.812;2022-07-29T05:34:00;25.00;89.40
63313;DHT22;49442;45.640;13.812;2022-07-29T05:36:26;25.10;89.20
63313;DHT22;49442;45.640;13.812;2022-07-29T05:38:51;25.10;89.40
63313;DHT22;49442;45.640;13.812;2022-07-29T05:41:20;25.10;89.60
63313;DHT22;49442;45.640;13.812;2022-07-29T05:43:46;25.20;88.70
63313;DHT22;49442;45.640;13.812;2022-07-29T05:46:12;25.20;89.50
63313;DHT22;49442;45.640;13.812;2022-07-29T05:48:39;25.20;90.10
63313;DHT22;49442;45.640;13.812;2022-07-29T05:51:05;25.20;89.40
63313;DHT22;49442;45.640;13.812;2022-07-29T05:53:30;25.20;88.20
63313;DHT22;49442;45.640;13.812;2022-07-29T05:55:56;25.30;88.70
63313;DHT22;49442;45.640;13.812;2022-07-29T05:58:22;25.40;88.60
63313;DHT22;49442;45.640;13.812;2022-07-29T06:00:48;25.40;88.80
63313;DHT22;49442;45.640;13.812;2022-07-29T06:03:13;25.50;89.60
63313;DHT22;49442;45.640;13.812;2022-07-29T06:05:39;25.50;89.40
63313;DHT22;49442;45.640;13.812;2022-07-29T06:08:05;25.50;90.10
63313;DHT22;49442;45.640;13.812;2022-07-29T06:10:33;25.50;88.90
63313;DHT22;49442;45.640;13.812;2022-07-29T06:12:59;25.60;88.60
63313;DHT22;49442;45.640;13.812;2022-07-29T06:15:25;25.60;89.30
63313;DHT22;49442;45.640;13.812;2022-07-29T06:17:51;25.70;89.70
63313;DHT22;49442;45.640;13.812;2022-07-29T06:20:18;25.60;89.00
63313;DHT22;49442;45.640;13.812;2022-07-29T06:22:44;25.70;88.20
63313;DHT22;49442;45.640;13.812;2022-07-29T06:25:09;25.80;87.50
63313;DHT22;49442;45.640;13.812;2022-07-29T06:27:35;25.90;88.30
63313;DHT22;49442;45.640;13.812;2022-07-29T06:30:01;25.90;87.90
63313;DHT22;49442;45.640;13.812;2022-07-29T06:32:27;25.90;87.40
63313;DHT22;49442;45.640;13.812;2022-07-29T06:34:53;25.90;87.40
63313;DHT22;49442;45.640;13.812;2022-07-29T06:37:18;25.90;86.10
63313;DHT22;49442;45.640;13.812;2022-07-29T06:39:44;26.00;87.70
63313;DHT22;49442;45.640;13.812;2022-07-29T06:42:10;26.20;88.80
63313;DHT22;49442;45.640;13.812;2022-07-29T06:44:35;26.30;87.30
63313;DHT22;49442;45.640;13.812;2022-07-29T06:47:02;26.40;87.50
63313;DHT22;49442;45.640;13.812;2022-07-29T06:49:28;26.50;87.10
63313;DHT22;49442;45.640;13.812;2022-07-29T06:51:54;26.50;89.10
63313;DHT22;49442;45.640;13.812;2022-07-29T06:54:20;26.60;89.70
63313;DHT22;49442;45.640;13.812;2022-07-29T06:56:46;26.70;90.10
63313;DHT22;49442;45.640;13.812;2022-07-29T06:59:12;26.80;90.10
63313;DHT22;49442;45.640;13.812;2022-07-29T07:01:40;26.80;89.10
63313;DHT22;49442;45.640;13.812;2022-07-29T07:04:07;26.80;89.10
63313;DHT22;49442;45.640;13.812;2022-07-29T07:06:34;26.90;89.50
63313;DHT22;49442;45.640;13.812;2022-07-29T07:09:00;26.90;88.40
63313;DHT22;49442;45.640;13.812;2022-07-29T07:11:26;26.90;89.10
63313;DHT22;49442;45.640;13.812;2022-07-29T07:13:51;26.80;88.80
63313;DHT22;49442;45.640;13.812;2022-07-29T07:16:17;26.80;88.40
63313;DHT22;49442;45.640;13.812;2022-07-29T07:18:43;26.90;89.90
63313;DHT22;49442;45.640;13.812;2022-07-29T07:21:10;26.90;90.00
63313;DHT22;49442;45.640;13.812;2022-07-29T07:23:36;27.00;87.20
63313;DHT22;49442;45.640;13.812;2022-07-29T07:26:02;27.00;86.50
63313;DHT22;49442;45.640;13.812;2022-07-29T07:28:28;27.00;87.70
63313;DHT22;49442;45.640;13.812;2022-07-29T07:30:54;27.00;87.40
63313;DHT22;49442;45.640;13.812;2022-07-29T07:33:20;27.10;87.90
63313;DHT22;49442;45.640;13.812;2022-07-29T07:35:46;27.20;87.30
63313;DHT22;49442;45.640;13.812;2022-07-29T07:38:12;27.20;85.20
63313;DHT22;49442;45.640;13.812;2022-07-29T07:40:38;27.30;86.10
63313;DHT22;49442;45.640;13.812;2022-07-29T07:43:04;27.30;86.20
63313;DHT22;49442;45.640;13.812;2022-07-29T07:45:29;27.40;86.20
63313;DHT22;49442;45.640;13.812;2022-07-29T07:47:58;27.40;86.90
63313;DHT22;49442;45.640;13.812;2022-07-29T07:50:24;27.50;86.40
63313;DHT22;49442;45.640;13.812;2022-07-29T07:52:54;27.60;85.90
63313;DHT22;49442;45.640;13.812;2022-07-29T07:55:23;27.70;85.70
63313;DHT22;49442;45.640;13.812;2022-07-29T07:57:49;27.80;86.20
63313;DHT22;49442;45.640;13.812;2022-07-29T08:00:16;27.80;86.60
63313;DHT22;49442;45.640;13.812;2022-07-29T08:02:42;27.80;86.00
63313;DHT22;49442;45.640;13.812;2022-07-29T08:05:09;27.80;87.50
63313;DHT22;49442;45.640;13.812;2022-07-29T08:07:35;28.00;87.40
63313;DHT22;49442;45.640;13.812;2022-07-29T08:10:02;28.00;86.50
63313;DHT22;49442;45.640;13.812;2022-07-29T08:12:27;28.00;86.90
63313;DHT22;49442;45.640;13.812;2022-07-29T08:14:53;28.10;87.20
63313;DHT22;49442;45.640;13.812;2022-07-29T08:17:19;28.20;86.90
63313;DHT22;49442;45.640;13.812;2022-07-29T08:19:45;28.30;86.40
63313;DHT22;49442;45.640;13.812;2022-07-29T08:22:11;28.30;85.90
63313;DHT22;49442;45.640;13.812;2022-07-29T08:24:36;28.30;86.10
63313;DHT22;49442;45.640;13.812;2022-07-29T08:27:08;28.40;85.70
63313;DHT22;49442;45.640;13.812;2022-07-29T08:29:34;28.40;83.10
63313;DHT22;49442;45.640;13.812;2022-07-29T08:32:00;28.30;82.60
63313;DHT22;49442;45.640;13.812;2022-07-29T08:34:26;28.30;84.10
63313;DHT22;49442;45.640;13.812;2022-07-29T08:36:52;28.40;85.30
63313;DHT22;49442;45.640;13.812;2022-07-29T08:39:17;28.50;84.30
63313;DHT22;49442;45.640;13.812;2022-07-29T08:41:43;28.60;84.60
63313;DHT22;49442;45.640;13.812;2022-07-29T08:44:09;28.60;84.60
63313;DHT22;49442;45.640;13.812;2022-07-29T08:46:37;28.70;84.00
63313;DHT22;49442;45.640;13.812;2022-07-29T08:49:04;28.80;84.20
63313;DHT22;49442;45.640;13.812;2022-07-29T08:51:33;28.80;83.20
63313;DHT22;49442;45.640;13.812;2022-07-29T08:54:01;28.80;83.90
63313;DHT22;49442;45.640;13.812;2022-07-29T08:56:27;28.90;83.80
63313;DHT22;49442;45.640;13.812;2022-07-29T08:58:54;28.90;83.40
63313;DHT22;49442;45.640;13.812;2022-07-29T09:01:25;29.00;84.70
63313;DHT22;49442;45.640;13.812;2022-07-29T09:03:55;29.00;83.70
63313;DHT22;49442;45.640;13.812;2022-07-29T09:06:22;29.00;83.40
63313;DHT22;49442;45.640;13.812;2022-07-29T09:08:48;28.90;83.70
63313;DHT22;49442;45.640;13.812;2022-07-29T09:11:14;29.00;84.20
63313;DHT22;49442;45.640;13.812;2022-07-29T09:13:40;29.10;84.70
63313;DHT22;49442;45.640;13.812;2022-07-29T09:16:06;29.10;84.30
63313;DHT22;49442;45.640;13.812;2022-07-29T09:18:42;29.10;83.30
63313;DHT22;49442;45.640;13.812;2022-07-29T09:21:11;29.10;82.60
63313;DHT22;49442;45.640;13.812;2022-07-29T09:24:15;29.20;83.10
63313;DHT22;49442;45.640;13.812;2022-07-29T09:26:44;29.20;81.50
63313;DHT22;49442;45.640;13.812;2022-07-29T09:29:21;29.20;80.80
63313;DHT22;49442;45.640;13.812;2022-07-29T09:31:49;29.20;79.80
63313;DHT22;49442;45.640;13.812;2022-07-29T09:34:20;29.30;80.20
63313;DHT22;49442;45.640;13.812;2022-07-29T09:36:48;29.30;79.50
63313;DHT22;49442;45.640;13.812;2022-07-29T09:39:16;29.30;78.70
63313;DHT22;49442;45.640;13.812;2022-07-29T09:41:57;29.30;78.90
63313;DHT22;49442;45.640;13.812;2022-07-29T09:44:23;29.30;80.10
63313;DHT22;49442;45.640;13.812;2022-07-29T09:47:03;29.40;78.80
63313;DHT22;49442;45.640;13.812;2022-07-29T09:49:36;29.40;78.20
63313;DHT22;49442;45.640;13.812;2022-07-29T09:52:15;29.50;78.50
63313;DHT22;49442;45.640;13.812;2022-07-29T09:54:41;29.50;78.90
63313;DHT22;49442;45.640;13.812;2022-07-29T09:57:27;29.60;80.60
63313;DHT22;49442;45.640;13.812;2022-07-29T10:00:04;29.60;81.70
63313;DHT22;49442;45.640;13.812;2022-07-29T10:02:35;29.70;80.50
63313;DHT22;49442;45.640;13.812;2022-07-29T10:05:03;29.80;78.60
63313;DHT22;49442;45.640;13.812;2022-07-29T10:07:50;29.90;78.30
63313;DHT22;49442;45.640;13.812;2022-07-29T10:15:21;29.90;78.20
63313;DHT22;49442;45.640;13.812;2022-07-29T10:17:48;29.90;78.10
63313;DHT22;49442;45.640;13.812;2022-07-29T10:20:15;29.90;76.50
63313;DHT22;49442;45.640;13.812;2022-07-29T10:22:41;29.80;76.70
63313;DHT22;49442;45.640;13.812;2022-07-29T10:25:08;29.80;78.00
63313;DHT22;49442;45.640;13.812;2022-07-29T10:27:35;29.80;78.10
63313;DHT22;49442;45.640;13.812;2022-07-29T10:30:01;29.90;78.20
63313;DHT22;49442;45.640;13.812;2022-07-29T10:32:39;29.90;77.40
63313;DHT22;49442;45.640;13.812;2022-07-29T10:35:24;29.90;78.60
63313;DHT22;49442;45.640;13.812;2022-07-29T10:38:04;29.90;76.70
63313;DHT22;49442;45.640;13.812;2022-07-29T10:43:33;30.00;78.70
63313;DHT22;49442;45.640;13.812;2022-07-29T10:46:02;30.00;76.80
63313;DHT22;49442;45.640;13.812;2022-07-29T10:48:28;30.10;76.20
63313;DHT22;49442;45.640;13.812;2022-07-29T10:50:58;30.00;76.30
63313;DHT22;49442;45.640;13.812;2022-07-29T10:53:48;30.10;75.60
63313;DHT22;49442;45.640;13.812;2022-07-29T10:56:35;30.10;72.90
63313;DHT22;49442;45.640;13.812;2022-07-29T11:01:52;30.10;73.60
63313;DHT22;49442;45.640;13.812;2022-07-29T11:07:08;30.20;74.90
63313;DHT22;49442;45.640;13.812;2022-07-29T11:09:34;30.30;75.70
63313;DHT22;49442;45.640;13.812;2022-07-29T11:12:00;30.30;74.00
63313;DHT22;49442;45.640;13.812;2022-07-29T11:14:55;30.30;73.40
63313;DHT22;49442;45.640;13.812;2022-07-29T11:17:21;30.30;73.30
63313;DHT22;49442;45.640;13.812;2022-07-29T11:19:47;30.30;72.30
63313;DHT22;49442;45.640;13.812;2022-07-29T11:22:32;30.30;73.90
63313;DHT22;49442;45.640;13.812;2022-07-29T11:25:17;30.40;73.10
63313;DHT22;49442;45.640;13.812;2022-07-29T11:27:44;30.40;72.80
63313;DHT22;49442;45.640;13.812;2022-07-29T11:30:10;30.40;71.80
63313;DHT22;49442;45.640;13.812;2022-07-29T11:32:42;30.40;71.30
63313;DHT22;49442;45.640;13.812;2022-07-29T11:35:16;30.50;70.60
63313;DHT22;49442;45.640;13.812;2022-07-29T11:37:43;30.40;70.10
63313;DHT22;49442;45.640;13.812;2022-07-29T11:40:11;30.50;71.80
63313;DHT22;49442;45.640;13.812;2022-07-29T11:42:39;30.50;72.80
63313;DHT22;49442;45.640;13.812;2022-07-29T11:45:17;30.50;71.10
63313;DHT22;49442;45.640;13.812;2022-07-29T11:50:37;30.50;73.30
63313;DHT22;49442;45.640;13.812;2022-07-29T11:53:10;30.50;73.10
63313;DHT22;49442;45.640;13.812;2022-07-29T11:55:38;30.50;73.00
63313;DHT22;49442;45.640;13.812;2022-07-29T11:58:04;30.50;72.30
63313;DHT22;49442;45.640;13.812;2022-07-29T12:00:38;30.60;73.80
63313;DHT22;49442;45.640;13.812;2022-07-29T12:03:07;30.50;72.80
63313;DHT22;49442;45.640;13.812;2022-07-29T12:08:15;30.60;72.60
63313;DHT22;49442;45.640;13.812;2022-07-29T12:10:43;30.60;72.80
63313;DHT22;49442;45.640;13.812;2022-07-29T12:13:10;30.60;73.30
63313;DHT22;49442;45.640;13.812;2022-07-29T12:15:37;30.60;73.70
63313;DHT22;49442;45.640;13.812;2022-07-29T12:18:10;30.70;75.40
63313;DHT22;49442;45.640;13.812;2022-07-29T12:20:36;30.70;71.80
63313;DHT22;49442;45.640;13.812;2022-07-29T12:23:05;30.70;72.60
63313;DHT22;49442;45.640;13.812;2022-07-29T12:25:34;30.70;73.40
63313;DHT22;49442;45.640;13.812;2022-07-29T12:28:03;30.70;72.10
63313;DHT22;49442;45.640;13.812;2022-07-29T12:30:44;30.70;74.20
63313;DHT22;49442;45.640;13.812;2022-07-29T12:33:11;30.70;74.80
63313;DHT22;49442;45.640;13.812;2022-07-29T12:35:37;30.60;72.60
63313;DHT22;49442;45.640;13.812;2022-07-29T12:38:04;30.60;74.90
63313;DHT22;49442;45.640;13.812;2022-07-29T12:40:30;30.60;74.40
63313;DHT22;49442;45.640;13.812;2022-07-29T12:43:06;30.50;72.90
63313;DHT22;49442;45.640;13.812;2022-07-29T12:45:32;30.50;72.30
63313;DHT22;49442;45.640;13.812;2022-07-29T12:47:58;30.50;72.10
63313;DHT22;49442;45.640;13.812;2022-07-29T12:50:24;30.50;73.00
63313;DHT22;49442;45.640;13.812;2022-07-29T12:52:50;30.50;72.60
63313;DHT22;49442;45.640;13.812;2022-07-29T12:55:37;30.50;74.30
63313;DHT22;49442;45.640;13.812;2022-07-29T12:58:05;30.50;70.40
63313;DHT22;49442;45.640;13.812;2022-07-29T13:00:31;30.50;72.20
63313;DHT22;49442;45.640;13.812;2022-07-29T13:02:59;30.40;74.10
63313;DHT22;49442;45.640;13.812;2022-07-29T13:05:43;30.50;76.30
63313;DHT22;49442;45.640;13.812;2022-07-29T13:08:16;30.60;74.70
63313;DHT22;49442;45.640;13.812;2022-07-29T13:10:44;30.60;76.00
63313;DHT22;49442;45.640;13.812;2022-07-29T13:13:10;30.70;75.40
63313;DHT22;49442;45.640;13.812;2022-07-29T13:15:41;30.70;73.00
63313;DHT22;49442;45.640;13.812;2022-07-29T13:18:32;30.60;71.40
63313;DHT22;49442;45.640;13.812;2022-07-29T13:21:14;30.70;74.10
63313;DHT22;49442;45.640;13.812;2022-07-29T13:23:41;30.70;72.20
63313;DHT22;49442;45.640;13.812;2022-07-29T13:26:08;30.70;72.00
63313;DHT22;49442;45.640;13.812;2022-07-29T13:28:34;30.70;69.40
63313;DHT22;49442;45.640;13.812;2022-07-29T13:31:01;30.60;69.30
63313;DHT22;49442;45.640;13.812;2022-07-29T13:33:26;30.50;69.20
63313;DHT22;49442;45.640;13.812;2022-07-29T13:35:52;30.50;70.90
63313;DHT22;49442;45.640;13.812;2022-07-29T13:38:20;30.50;69.50
63313;DHT22;49442;45.640;13.812;2022-07-29T13:40:47;30.50;71.50
63313;DHT22;49442;45.640;13.812;2022-07-29T13:43:13;30.50;70.60
63313;DHT22;49442;45.640;13.812;2022-07-29T13:45:38;30.60;70.40
63313;DHT22;49442;45.640;13.812;2022-07-29T13:48:04;30.60;68.40
63313;DHT22;49442;45.640;13.812;2022-07-29T13:50:31;30.60;67.60
63313;DHT22;49442;45.640;13.812;2022-07-29T13:52:57;30.60;67.40
63313;DHT22;49442;45.640;13.812;2022-07-29T13:55:23;30.50;69.90
63313;DHT22;49442;45.640;13.812;2022-07-29T13:57:49;30.50;70.10
63313;DHT22;49442;45.640;13.812;2022-07-29T14:00:15;30.50;70.00
63313;DHT22;49442;45.640;13.812;2022-07-29T14:02:42;30.50;70.30
63313;DHT22;49442;45.640;13.812;2022-07-29T14:05:08;30.50;72.80
63313;DHT22;49442;45.640;13.812;2022-07-29T14:07:36;30.50;68.80
63313;DHT22;49442;45.640;13.812;2022-07-29T14:10:02;30.50;69.70
63313;DHT22;49442;45.640;13.812;2022-07-29T14:12:29;30.50;72.50
63313;DHT22;49442;45.640;13.812;2022-07-29T14:14:55;30.60;69.10
63313;DHT22;49442;45.640;13.812;2022-07-29T14:17:21;30.50;69.10
63313;DHT22;49442;45.640;13.812;2022-07-29T14:19:47;30.50;69.50
63313;DHT22;49442;45.640;13.812;2022-07-29T14:22:13;30.50;70.60
63313;DHT22;49442;45.640;13.812;2022-07-29T14:24:39;30.50;68.80
63313;DHT22;49442;45.640;13.812;2022-07-29T14:27:08;30.50;69.00
63313;DHT22;49442;45.640;13.812;2022-07-29T14:29:34;30.50;68.60
63313;DHT22;49442;45.640;13.812;2022-07-29T14:32:04;30.70;71.00
63313;DHT22;49442;45.640;13.812;2022-07-29T14:34:29;30.60;70.80
63313;DHT22;49442;45.640;13.812;2022-07-29T14:36:55;30.70;70.50
63313;DHT22;49442;45.640;13.812;2022-07-29T14:39:22;30.80;69.20
63313;DHT22;49442;45.640;13.812;2022-07-29T14:41:51;30.80;68.40
63313;DHT22;49442;45.640;13.812;2022-07-29T14:44:17;30.80;69.40
63313;DHT22;49442;45.640;13.812;2022-07-29T14:46:43;30.80;69.40
63313;DHT22;49442;45.640;13.812;2022-07-29T14:49:09;30.80;69.80
63313;DHT22;49442;45.640;13.812;2022-07-29T14:51:35;30.80;69.60
63313;DHT22;49442;45.640;13.812;2022-07-29T14:54:01;30.80;69.10
63313;DHT22;49442;45.640;13.812;2022-07-29T14:56:27;30.80;69.20
63313;DHT22;49442;45.640;13.812;2022-07-29T14:58:55;30.90;68.50
63313;DHT22;49442;45.640;13.812;2022-07-29T15:01:21;30.80;67.50
63313;DHT22;49442;45.640;13.812;2022-07-29T15:03:47;30.80;67.90
63313;DHT22;49442;45.640;13.812;2022-07-29T15:06:13;30.80;67.20
63313;DHT22;49442;45.640;13.812;2022-07-29T15:08:38;30.80;68.70
63313;DHT22;49442;45.640;13.812;2022-07-29T15:11:04;30.80;68.60
63313;DHT22;49442;45.640;13.812;2022-07-29T15:13:30;30.80;67.70
63313;DHT22;49442;45.640;13.812;2022-07-29T15:15:55;30.80;68.20
63313;DHT22;49442;45.640;13.812;2022-07-29T15:18:21;30.70;66.80
63313;DHT22;49442;45.640;13.812;2022-07-29T15:20:47;30.60;65.80
63313;DHT22;49442;45.640;13.812;2022-07-29T15:23:12;30.60;68.10
63313;DHT22;49442;45.640;13.812;2022-07-29T15:25:39;30.50;67.60
63313;DHT22;49442;45.640;13.812;2022-07-29T15:28:05;30.50;67.10
63313;DHT22;49442;45.640;13.812;2022-07-29T15:30:34;30.60;67.30
63313;DHT22;49442;45.640;13.812;2022-07-29T15:33:05;30.50;66.80
63313;DHT22;49442;45.640;13.812;2022-07-29T15:35:31;30.60;67.10
63313;DHT22;49442;45.640;13.812;2022-07-29T15:37:56;30.60;66.30
63313;DHT22;49442;45.640;13.812;2022-07-29T15:40:22;30.50;67.40
63313;DHT22;49442;45.640;13.812;2022-07-29T15:42:48;30.60;67.40
63313;DHT22;49442;45.640;13.812;2022-07-29T15:45:13;30.50;66.10
63313;DHT22;49442;45.640;13.812;2022-07-29T15:47:39;30.50;65.40
63313;DHT22;49442;45.640;13.812;2022-07-29T15:50:05;30.50;65.00
63313;DHT22;49442;45.640;13.812;2022-07-29T15:52:32;30.50;63.10
63313;DHT22;49442;45.640;13.812;2022-07-29T15:54:57;30.40;63.60